sensor_id;sensor_type;location;lat;lon;timestamp;temperature;humidity
19941;DHT22;10132;50.864;5.176;2023-07-31T00:01:27;17.10;99.90
19941;DHT22;10132;50.864;5.176;2023-07-31T00:03:29;17.10;99.90
19941;DHT22;10132;50.864;5.176;2023-07-31T00:05:31;17.10;99.90
19941;DHT22;10132;50.864;5.176;2023-07-31T00:07:33;17.10;99.90
19941;DHT22;10132;50.864;5.176;2023-07-31T00:09:35;17.10;99.90
19941;DHT22;10132;50.864;5.176;2023-07-31T00:11:37;17.10;99.90
19941;DHT22;10132;50.864;5.176;2023-07-31T00:13:39;17.10;99.90
19941;DHT22;10132;50.864;5.176;2023-07-31T00:15:42;17.10;99.90
19941;DHT22;10132;50.864;5.176;2023-07-31T00:17:43;17.00;99.90
19941;DHT22;10132;50.864;5.176;2023-07-31T00:19:45;17.00;99.90
19941;DHT22;10132;50.864;5.176;2023-07-31T00:21:49;17.00;99.90
19941;DHT22;10132;50.864;5.176;2023-07-31T00:23:52;17.00;99.90
19941;DHT22;10132;50.864;5.176;2023-07-31T00:25:53;17.00;99.90
19941;DHT22;10132;50.864;5.176;2023-07-31T00:27:55;17.00;99.90
19941;DHT22;10132;50.864;5.176;2023-07-31T00:29:57;17.00;99.90
19941;DHT22;10132;50.864;5.176;2023-07-31T00:32:00;17.00;99.90
19941;DHT22;10132;50.864;5.176;2023-07-31T00:34:02;17.00;99.90
19941;DHT22;10132;50.864;5.176;2023-07-31T00:36:04;17.10;99.90
19941;DHT22;10132;50.864;5.176;2023-07-31T00:38:06;17.10;99.90
19941;DHT22;10132;50.864;5.176;2023-07-31T00:40:09;17.10;99.90
19941;DHT22;10132;50.864;5.176;2023-07-31T00:42:11;17.10;99.90
19941;DHT22;10132;50.864;5.176;2023-07-31T00:44:13;17.10;99.90
19941;DHT22;10132;50.864;5.176;2023-07-31T00:46:15;17.20;99.90
19941;DHT22;10132;50.864;5.176;2023-07-31T00:48:18;17.20;99.90
19941;DHT22;10132;50.864;5.176;2023-07-31T00:50:22;17.30;99.90
19941;DHT22;10132;50.864;5.176;2023-07-31T00:52:23;17.30;99.90
19941;DHT22;10132;50.864;5.176;2023-07-31T00:54:25;17.30;99.90
19941;DHT22;10132;50.864;5.176;2023-07-31T00:56:28;17.30;99.90
19941;DHT22;10132;50.864;5.176;2023-07-31T00:58:30;17.30;99.90
19941;DHT22;10132;50.864;5.176;2023-07-31T01:00:33;17.30;99.90
19941;DHT22;10132;50.864;5.176;2023-07-31T01:02:35;17.30;99.90
19941;DHT22;10132;50.864;5.176;2023-07-31T01:04:39;17.30;99.90
19941;DHT22;10132;50.864;5.176;2023-07-31T01:06:47;17.30;99.90
19941;DHT22;10132;50.864;5.176;2023-07-31T01:08:57;17.30;99.90
19941;DHT22;10132;50.864;5.176;2023-07-31T01:11:04;17.40;99.90
19941;DHT22;10132;50.864;5.176;2023-07-31T01:13:10;17.30;99.90
19941;DHT22;10132;50.864;5.176;2023-07-31T01:15:11;17.30;99.90
19941;DHT22;10132;50.864;5.176;2023-07-31T01:17:15;17.30;99.90
19941;DHT22;10132;50.864;5.176;2023-07-31T01:19:18;17.30;99.90
19941;DHT22;10132;50.864;5.176;2023-07-31T01:21:41;17.40;99.90
19941;DHT22;10132;50.864;5.176;2023-07-31T01:24:11;17.40;99.90
19941;DHT22;10132;50.864;5.176;2023-07-31T01:26:19;17.50;99.90
19941;DHT22;10132;50.864;5.176;2023-07-31T01:28:27;17.50;99.90
19941;DHT22;10132;50.864;5.176;2023-07-31T01:30:33;17.50;99.90
19941;DHT22;10132;50.864;5.176;2023-07-31T01:32:39;17.50;99.90
19941;DHT22;10132;50.864;5.176;2023-07-31T01:34:42;17.50;99.90
19941;DHT22;10132;50.864;5.176;2023-07-31T01:36:45;17.50;99.90
19941;DHT22;10132;50.864;5.176;2023-07-31T01:38:46;17.50;99.90
19941;DHT22;10132;50.864;5.176;2023-07-31T01:40:51;17.50;99.90
19941;DHT22;10132;50.864;5.176;2023-07-31T01:42:55;17.50;99.90
19941;DHT22;10132;50.864;5.176;2023-07-31T01:44:57;17.50;99.90
19941;DHT22;10132;50.864;5.176;2023-07-31T01:46:59;17.50;99.90
19941;DHT22;10132;50.864;5.176;2023-07-31T01:49:01;17.50;99.90
19941;DHT22;10132;50.864;5.176;2023-07-31T01:51:03;17.50;99.90
19941;DHT22;10132;50.864;5.176;2023-07-31T01:53:05;17.50;99.90
19941;DHT22;10132;50.864;5.176;2023-07-31T01:55:08;17.50;99.90
19941;DHT22;10132;50.864;5.176;2023-07-31T01:57:10;17.50;99.90
19941;DHT22;10132;50.864;5.176;2023-07-31T01:59:13;17.50;99.90
19941;DHT22;10132;50.864;5.176;2023-07-31T02:01:15;17.50;99.90
19941;DHT22;10132;50.864;5.176;2023-07-31T02:03:17;17.40;99.90
19941;DHT22;10132;50.864;5.176;2023-07-31T02:05:18;17.40;99.90
19941;DHT22;10132;50.864;5.176;2023-07-31T02:07:20;17.40;99.90
19941;DHT22;10132;50.864;5.176;2023-07-31T02:09:22;17.30;99.90
19941;DHT22;10132;50.864;5.176;2023-07-31T02:11:24;17.30;99.90
19941;DHT22;10132;50.864;5.176;2023-07-31T02:13:26;17.30;99.90
19941;DHT22;10132;50.864;5.176;2023-07-31T02:15:30;17.30;99.90
19941;DHT22;10132;50.864;5.176;2023-07-31T02:17:32;17.30;99.90
19941;DHT22;10132;50.864;5.176;2023-07-31T02:19:34;17.30;99.90
19941;DHT22;10132;50.864;5.176;2023-07-31T02:21:36;17.30;99.90
19941;DHT22;10132;50.864;5.176;2023-07-31T02:23:37;17.40;99.90
19941;DHT22;10132;50.864;5.176;2023-07-31T02:25:39;17.40;99.90
19941;DHT22;10132;50.864;5.176;2023-07-31T02:27:41;17.40;99.90
19941;DHT22;10132;50.864;5.176;2023-07-31T02:29:43;17.40;99.90
19941;DHT22;10132;50.864;5.176;2023-07-31T02:31:46;17.40;99.90
19941;DHT22;10132;50.864;5.176;2023-07-31T02:33:48;17.40;99.90
19941;DHT22;10132;50.864;5.176;2023-07-31T02:35:49;17.40;99.90
19941;DHT22;10132;50.864;5.176;2023-07-31T02:37:51;17.30;99.90
19941;DHT22;10132;50.864;5.176;2023-07-31T02:39:53;17.40;99.90
19941;DHT22;10132;50.864;5.176;2023-07-31T02:41:55;17.40;99.90
19941;DHT22;10132;50.864;5.176;2023-07-31T02:43:57;17.50;99.90
19941;DHT22;10132;50.864;5.176;2023-07-31T02:45:59;17.50;99.90
19941;DHT22;10132;50.864;5.176;2023-07-31T02:48:03;17.50;99.90
19941;DHT22;10132;50.864;5.176;2023-07-31T02:50:06;17.60;99.90
19941;DHT22;10132;50.864;5.176;2023-07-31T02:52:08;17.50;99.90
19941;DHT22;10132;50.864;5.176;2023-07-31T02:54:10;17.50;99.90
19941;DHT22;10132;50.864;5.176;2023-07-31T02:56:12;17.40;99.90
19941;DHT22;10132;50.864;5.176;2023-07-31T02:58:14;17.40;99.90
19941;DHT22;10132;50.864;5.176;2023-07-31T03:00:16;17.40;99.90
19941;DHT22;10132;50.864;5.176;2023-07-31T03:02:18;17.40;99.90
19941;DHT22;10132;50.864;5.176;2023-07-31T03:04:21;17.40;99.90
19941;DHT22;10132;50.864;5.176;2023-07-31T03:06:23;17.30;99.90
19941;DHT22;10132;50.864;5.176;2023-07-31T03:08:26;17.30;99.90
19941;DHT22;10132;50.864;5.176;2023-07-31T03:10:28;17.40;99.90
19941;DHT22;10132;50.864;5.176;2023-07-31T03:12:30;17.50;99.90
19941;DHT22;10132;50.864;5.176;2023-07-31T03:14:32;17.40;99.90
19941;DHT22;10132;50.864;5.176;2023-07-31T03:16:34;17.30;99.90
19941;DHT22;10132;50.864;5.176;2023-07-31T03:18:37;17.40;99.90
19941;DHT22;10132;50.864;5.176;2023-07-31T03:20:43;17.40;99.90
19941;DHT22;10132;50.864;5.176;2023-07-31T03:22:45;17.40;99.90
19941;DHT22;10132;50.864;5.176;2023-07-31T03:24:48;17.30;99.90
19941;DHT22;10132;50.864;5.176;2023-07-31T03:26:48;17.30;99.90
19941;DHT22;10132;50.864;5.176;2023-07-31T03:28:50;17.30;99.90
19941;DHT22;10132;50.864;5.176;2023-07-31T03:30:53;17.40;99.90
19941;DHT22;10132;50.864;5.176;2023-07-31T03:32:55;17.40;99.90
19941;DHT22;10132;50.864;5.176;2023-07-31T03:34:57;17.40;99.90
19941;DHT22;10132;50.864;5.176;2023-07-31T03:37:00;17.50;99.90
19941;DHT22;10132;50.864;5.176;2023-07-31T03:39:02;17.60;99.90
19941;DHT22;10132;50.864;5.176;2023-07-31T03:41:05;17.50;99.90
19941;DHT22;10132;50.864;5.176;2023-07-31T03:43:07;17.50;99.90
19941;DHT22;10132;50.864;5.176;2023-07-31T03:45:10;17.50;99.90
19941;DHT22;10132;50.864;5.176;2023-07-31T03:47:12;17.40;99.90
19941;DHT22;10132;50.864;5.176;2023-07-31T03:49:13;17.40;99.90
19941;DHT22;10132;50.864;5.176;2023-07-31T03:51:15;17.40;99.90
19941;DHT22;10132;50.864;5.176;2023-07-31T03:53:18;17.40;99.90
19941;DHT22;10132;50.864;5.176;2023-07-31T03:55:21;17.40;99.90
19941;DHT22;10132;50.864;5.176;2023-07-31T03:57:23;17.40;99.90
19941;DHT22;10132;50.864;5.176;2023-07-31T03:59:24;17.40;99.90
19941;DHT22;10132;50.864;5.176;2023-07-31T04:01:26;17.40;99.90
19941;DHT22;10132;50.864;5.176;2023-07-31T04:03:28;17.30;99.90
19941;DHT22;10132;50.864;5.176;2023-07-31T04:05:31;17.40;99.90
19941;DHT22;10132;50.864;5.176;2023-07-31T04:07:33;17.30;99.90
19941;DHT22;10132;50.864;5.176;2023-07-31T04:09:36;17.40;99.90
19941;DHT22;10132;50.864;5.176;2023-07-31T04:11:38;17.40;99.90
19941;DHT22;10132;50.864;5.176;2023-07-31T04:13:41;17.40;99.90
19941;DHT22;10132;50.864;5.176;2023-07-31T04:15:43;17.30;99.90
19941;DHT22;10132;50.864;5.176;2023-07-31T04:17:49;17.30;99.90
19941;DHT22;10132;50.864;5.176;2023-07-31T04:19:51;17.40;99.90
19941;DHT22;10132;50.864;5.176;2023-07-31T04:21:53;17.40;99.90
19941;DHT22;10132;50.864;5.176;2023-07-31T04:23:55;17.40;99.90
19941;DHT22;10132;50.864;5.176;2023-07-31T04:26:00;17.40;99.90
19941;DHT22;10132;50.864;5.176;2023-07-31T04:28:02;17.30;99.90
19941;DHT22;10132;50.864;5.176;2023-07-31T04:30:05;17.30;99.90
19941;DHT22;10132;50.864;5.176;2023-07-31T04:32:08;17.30;99.90
19941;DHT22;10132;50.864;5.176;2023-07-31T04:34:10;17.30;99.90
19941;DHT22;10132;50.864;5.176;2023-07-31T04:36:12;17.30;99.90
19941;DHT22;10132;50.864;5.176;2023-07-31T04:38:14;17.20;99.90
19941;DHT22;10132;50.864;5.176;2023-07-31T04:40:16;17.20;99.90
19941;DHT22;10132;50.864;5.176;2023-07-31T04:42:20;17.20;99.90
19941;DHT22;10132;50.864;5.176;2023-07-31T04:44:22;17.10;99.90
19941;DHT22;10132;50.864;5.176;2023-07-31T04:46:23;17.10;99.90
19941;DHT22;10132;50.864;5.176;2023-07-31T04:48:25;17.00;99.90
19941;DHT22;10132;50.864;5.176;2023-07-31T04:50:27;17.10;99.90
19941;DHT22;10132;50.864;5.176;2023-07-31T04:52:30;17.10;99.90
19941;DHT22;10132;50.864;5.176;2023-07-31T04:54:32;17.20;99.90
19941;DHT22;10132;50.864;5.176;2023-07-31T04:56:34;17.00;99.90
19941;DHT22;10132;50.864;5.176;2023-07-31T04:58:38;17.00;99.90
19941;DHT22;10132;50.864;5.176;2023-07-31T05:00:40;17.00;99.90
19941;DHT22;10132;50.864;5.176;2023-07-31T05:02:42;17.00;99.90
19941;DHT22;10132;50.864;5.176;2023-07-31T05:04:44;17.00;99.90
19941;DHT22;10132;50.864;5.176;2023-07-31T05:06:45;16.90;99.90
19941;DHT22;10132;50.864;5.176;2023-07-31T05:08:47;17.00;99.90
19941;DHT22;10132;50.864;5.176;2023-07-31T05:10:50;17.00;99.90
19941;DHT22;10132;50.864;5.176;2023-07-31T05:12:52;17.00;99.90
19941;DHT22;10132;50.864;5.176;2023-07-31T05:14:55;17.00;99.90
19941;DHT22;10132;50.864;5.176;2023-07-31T05:16:57;17.10;99.90
19941;DHT22;10132;50.864;5.176;2023-07-31T05:18:59;17.00;99.90
19941;DHT22;10132;50.864;5.176;2023-07-31T05:21:00;17.10;99.90
19941;DHT22;10132;50.864;5.176;2023-07-31T05:23:03;17.10;99.90
19941;DHT22;10132;50.864;5.176;2023-07-31T05:25:05;17.20;99.90
19941;DHT22;10132;50.864;5.176;2023-07-31T05:27:07;17.10;99.90
19941;DHT22;10132;50.864;5.176;2023-07-31T05:29:10;17.10;99.90
19941;DHT22;10132;50.864;5.176;2023-07-31T05:31:13;17.10;99.90
19941;DHT22;10132;50.864;5.176;2023-07-31T05:33:15;17.10;99.90
19941;DHT22;10132;50.864;5.176;2023-07-31T05:35:17;17.10;99.90
19941;DHT22;10132;50.864;5.176;2023-07-31T05:37:19;17.10;99.90
19941;DHT22;10132;50.864;5.176;2023-07-31T05:39:22;17.20;99.90
19941;DHT22;10132;50.864;5.176;2023-07-31T05:41:24;17.20;99.90
19941;DHT22;10132;50.864;5.176;2023-07-31T05:43:26;17.20;99.90
19941;DHT22;10132;50.864;5.176;2023-07-31T05:45:28;17.20;99.90
19941;DHT22;10132;50.864;5.176;2023-07-31T05:47:31;17.20;99.90
19941;DHT22;10132;50.864;5.176;2023-07-31T05:49:32;17.20;99.90
19941;DHT22;10132;50.864;5.176;2023-07-31T05:51:34;17.20;99.90
19941;DHT22;10132;50.864;5.176;2023-07-31T05:53:36;17.20;99.90
19941;DHT22;10132;50.864;5.176;2023-07-31T05:55:41;17.10;99.90
19941;DHT22;10132;50.864;5.176;2023-07-31T05:57:43;17.00;99.90
19941;DHT22;10132;50.864;5.176;2023-07-31T05:59:46;17.00;99.90
19941;DHT22;10132;50.864;5.176;2023-07-31T06:01:48;16.90;99.90
19941;DHT22;10132;50.864;5.176;2023-07-31T06:03:52;17.00;99.90
19941;DHT22;10132;50.864;5.176;2023-07-31T06:05:54;16.90;99.90
19941;DHT22;10132;50.864;5.176;2023-07-31T06:07:56;16.80;99.90
19941;DHT22;10132;50.864;5.176;2023-07-31T06:09:58;16.80;99.90
19941;DHT22;10132;50.864;5.176;2023-07-31T06:12:04;16.80;99.90
19941;DHT22;10132;50.864;5.176;2023-07-31T06:14:06;16.90;99.90
19941;DHT22;10132;50.864;5.176;2023-07-31T06:16:08;16.80;99.90
19941;DHT22;10132;50.864;5.176;2023-07-31T06:18:10;16.70;99.90
19941;DHT22;10132;50.864;5.176;2023-07-31T06:20:14;16.70;99.90
19941;DHT22;10132;50.864;5.176;2023-07-31T06:22:15;16.80;99.90
19941;DHT22;10132;50.864;5.176;2023-07-31T06:24:17;16.80;99.90
19941;DHT22;10132;50.864;5.176;2023-07-31T06:26:21;16.70;99.90
19941;DHT22;10132;50.864;5.176;2023-07-31T06:28:27;16.70;99.90
19941;DHT22;10132;50.864;5.176;2023-07-31T06:30:30;16.70;99.90
19941;DHT22;10132;50.864;5.176;2023-07-31T06:32:32;16.70;99.90
19941;DHT22;10132;50.864;5.176;2023-07-31T06:34:34;16.60;99.90
19941;DHT22;10132;50.864;5.176;2023-07-31T06:36:37;16.70;99.90
19941;DHT22;10132;50.864;5.176;2023-07-31T06:38:39;16.60;99.90
19941;DHT22;10132;50.864;5.176;2023-07-31T06:40:41;16.60;99.90
19941;DHT22;10132;50.864;5.176;2023-07-31T06:42:43;16.60;99.90
19941;DHT22;10132;50.864;5.176;2023-07-31T06:44:44;16.50;99.90
19941;DHT22;10132;50.864;5.176;2023-07-31T06:46:46;16.60;99.90
19941;DHT22;10132;50.864;5.176;2023-07-31T06:48:48;16.60;99.90
19941;DHT22;10132;50.864;5.176;2023-07-31T06:50:50;16.50;99.90
19941;DHT22;10132;50.864;5.176;2023-07-31T06:52:54;16.60;99.90
19941;DHT22;10132;50.864;5.176;2023-07-31T06:55:02;16.60;99.90
19941;DHT22;10132;50.864;5.176;2023-07-31T06:57:05;16.70;99.90
19941;DHT22;10132;50.864;5.176;2023-07-31T06:59:07;16.80;99.90
19941;DHT22;10132;50.864;5.176;2023-07-31T07:01:09;16.80;99.90
19941;DHT22;10132;50.864;5.176;2023-07-31T07:03:11;16.70;99.90
19941;DHT22;10132;50.864;5.176;2023-07-31T07:05:16;16.80;99.90
19941;DHT22;10132;50.864;5.176;2023-07-31T07:07:18;16.90;99.90
19941;DHT22;10132;50.864;5.176;2023-07-31T07:09:21;17.00;99.90
19941;DHT22;10132;50.864;5.176;2023-07-31T07:11:23;17.00;99.90
19941;DHT22;10132;50.864;5.176;2023-07-31T07:13:26;17.00;99.90
19941;DHT22;10132;50.864;5.176;2023-07-31T07:15:28;17.00;99.90
19941;DHT22;10132;50.864;5.176;2023-07-31T07:17:30;17.00;99.90
19941;DHT22;10132;50.864;5.176;2023-07-31T07:19:32;17.10;99.90
19941;DHT22;10132;50.864;5.176;2023-07-31T07:21:34;17.10;99.90
19941;DHT22;10132;50.864;5.176;2023-07-31T07:23:36;17.20;99.90
19941;DHT22;10132;50.864;5.176;2023-07-31T07:25:40;17.20;99.90
19941;DHT22;10132;50.864;5.176;2023-07-31T07:27:42;17.20;99.90
19941;DHT22;10132;50.864;5.176;2023-07-31T07:29:45;17.10;99.90
19941;DHT22;10132;50.864;5.176;2023-07-31T07:31:47;17.20;99.90
19941;DHT22;10132;50.864;5.176;2023-07-31T07:33:49;17.30;99.90
19941;DHT22;10132;50.864;5.176;2023-07-31T07:35:51;17.20;99.90
19941;DHT22;10132;50.864;5.176;2023-07-31T07:37:53;17.20;99.90
19941;DHT22;10132;50.864;5.176;2023-07-31T07:39:55;17.20;99.90
19941;DHT22;10132;50.864;5.176;2023-07-31T07:41:59;17.30;99.90
19941;DHT22;10132;50.864;5.176;2023-07-31T07:44:01;17.20;99.90
19941;DHT22;10132;50.864;5.176;2023-07-31T07:46:03;17.20;99.90
19941;DHT22;10132;50.864;5.176;2023-07-31T07:48:05;17.30;99.90
19941;DHT22;10132;50.864;5.176;2023-07-31T07:50:07;17.30;99.90
19941;DHT22;10132;50.864;5.176;2023-07-31T07:52:09;17.30;99.90
19941;DHT22;10132;50.864;5.176;2023-07-31T07:54:11;17.30;99.90
19941;DHT22;10132;50.864;5.176;2023-07-31T07:56:13;17.20;99.90
19941;DHT22;10132;50.864;5.176;2023-07-31T07:58:17;17.30;99.90
19941;DHT22;10132;50.864;5.176;2023-07-31T08:00:19;17.30;99.90
19941;DHT22;10132;50.864;5.176;2023-07-31T08:02:20;17.40;99.90
19941;DHT22;10132;50.864;5.176;2023-07-31T08:04:22;17.40;99.90
19941;DHT22;10132;50.864;5.176;2023-07-31T08:06:24;17.50;99.90
19941;DHT22;10132;50.864;5.176;2023-07-31T08:08:27;17.40;99.90
19941;DHT22;10132;50.864;5.176;2023-07-31T08:10:29;17.40;99.90
19941;DHT22;10132;50.864;5.176;2023-07-31T08:12:31;17.40;99.90
19941;DHT22;10132;50.864;5.176;2023-07-31T08:14:35;17.30;99.90
19941;DHT22;10132;50.864;5.176;2023-07-31T08:16:37;17.30;99.90
19941;DHT22;10132;50.864;5.176;2023-07-31T08:18:39;17.30;99.90
19941;DHT22;10132;50.864;5.176;2023-07-31T08:20:43;17.20;99.90
19941;DHT22;10132;50.864;5.176;2023-07-31T08:22:45;17.20;99.90
19941;DHT22;10132;50.864;5.176;2023-07-31T08:24:47;17.20;99.90
19941;DHT22;10132;50.864;5.176;2023-07-31T08:26:49;17.10;99.90
19941;DHT22;10132;50.864;5.176;2023-07-31T08:28:51;17.10;99.90
19941;DHT22;10132;50.864;5.176;2023-07-31T08:30:54;17.20;99.90
19941;DHT22;10132;50.864;5.176;2023-07-31T08:32:56;17.20;99.90
19941;DHT22;10132;50.864;5.176;2023-07-31T08:34:58;17.30;99.90
19941;DHT22;10132;50.864;5.176;2023-07-31T08:36:59;17.40;99.90
19941;DHT22;10132;50.864;5.176;2023-07-31T08:39:01;17.50;99.90
19941;DHT22;10132;50.864;5.176;2023-07-31T08:41:04;17.40;99.90
19941;DHT22;10132;50.864;5.176;2023-07-31T08:43:08;17.20;99.90
19941;DHT22;10132;50.864;5.176;2023-07-31T08:45:14;17.20;99.90
19941;DHT22;10132;50.864;5.176;2023-07-31T08:47:19;17.10;99.90
19941;DHT22;10132;50.864;5.176;2023-07-31T08:49:22;17.30;99.90
19941;DHT22;10132;50.864;5.176;2023-07-31T08:51:25;17.40;99.90
19941;DHT22;10132;50.864;5.176;2023-07-31T08:53:27;17.40;99.90
19941;DHT22;10132;50.864;5.176;2023-07-31T08:55:29;17.40;99.90
19941;DHT22;10132;50.864;5.176;2023-07-31T08:57:34;17.60;99.90
19941;DHT22;10132;50.864;5.176;2023-07-31T08:59:37;17.70;99.90
19941;DHT22;10132;50.864;5.176;2023-07-31T09:01:44;17.70;99.90
19941;DHT22;10132;50.864;5.176;2023-07-31T09:03:50;17.60;99.90
19941;DHT22;10132;50.864;5.176;2023-07-31T09:05:55;17.60;99.90
19941;DHT22;10132;50.864;5.176;2023-07-31T09:08:00;17.50;99.90
19941;DHT22;10132;50.864;5.176;2023-07-31T09:10:04;17.60;99.90
19941;DHT22;10132;50.864;5.176;2023-07-31T09:12:07;17.60;99.90
19941;DHT22;10132;50.864;5.176;2023-07-31T09:14:10;17.60;99.90
19941;DHT22;10132;50.864;5.176;2023-07-31T09:16:12;17.60;99.90
19941;DHT22;10132;50.864;5.176;2023-07-31T09:18:14;17.70;99.90
19941;DHT22;10132;50.864;5.176;2023-07-31T09:20:22;17.70;99.90
19941;DHT22;10132;50.864;5.176;2023-07-31T09:22:31;17.90;99.90
19941;DHT22;10132;50.864;5.176;2023-07-31T09:24:34;17.80;99.90
19941;DHT22;10132;50.864;5.176;2023-07-31T09:26:36;17.80;99.90
19941;DHT22;10132;50.864;5.176;2023-07-31T09:28:38;17.80;99.90
19941;DHT22;10132;50.864;5.176;2023-07-31T09:30:46;17.70;99.90
19941;DHT22;10132;50.864;5.176;2023-07-31T09:32:49;17.80;99.90
19941;DHT22;10132;50.864;5.176;2023-07-31T09:34:52;17.80;99.90
19941;DHT22;10132;50.864;5.176;2023-07-31T09:37:00;17.90;99.90
19941;DHT22;10132;50.864;5.176;2023-07-31T09:39:03;17.90;99.90
19941;DHT22;10132;50.864;5.176;2023-07-31T09:41:05;17.90;99.90
19941;DHT22;10132;50.864;5.176;2023-07-31T09:43:10;17.90;99.90
19941;DHT22;10132;50.864;5.176;2023-07-31T09:45:12;17.90;99.90
19941;DHT22;10132;50.864;5.176;2023-07-31T09:47:21;18.10;99.90
19941;DHT22;10132;50.864;5.176;2023-07-31T09:49:25;18.40;99.90
19941;DHT22;10132;50.864;5.176;2023-07-31T09:51:27;18.50;99.90
19941;DHT22;10132;50.864;5.176;2023-07-31T09:53:30;18.40;99.90
19941;DHT22;10132;50.864;5.176;2023-07-31T09:55:33;18.30;99.90
19941;DHT22;10132;50.864;5.176;2023-07-31T09:57:34;18.10;99.90
19941;DHT22;10132;50.864;5.176;2023-07-31T09:59:38;18.20;99.90
19941;DHT22;10132;50.864;5.176;2023-07-31T10:01:41;18.10;99.90
19941;DHT22;10132;50.864;5.176;2023-07-31T10:03:45;18.10;99.90
19941;DHT22;10132;50.864;5.176;2023-07-31T10:05:51;18.10;99.90
19941;DHT22;10132;50.864;5.176;2023-07-31T10:07:55;18.20;99.90
19941;DHT22;10132;50.864;5.176;2023-07-31T10:10:00;18.20;99.90
19941;DHT22;10132;50.864;5.176;2023-07-31T10:12:06;18.30;99.90
19941;DHT22;10132;50.864;5.176;2023-07-31T10:14:10;18.40;99.90
19941;DHT22;10132;50.864;5.176;2023-07-31T10:16:14;18.40;99.90
19941;DHT22;10132;50.864;5.176;2023-07-31T10:18:18;18.40;99.90
19941;DHT22;10132;50.864;5.176;2023-07-31T10:20:21;18.60;99.90
19941;DHT22;10132;50.864;5.176;2023-07-31T10:22:24;18.70;99.90
19941;DHT22;10132;50.864;5.176;2023-07-31T10:24:27;18.80;99.90
19941;DHT22;10132;50.864;5.176;2023-07-31T10:26:32;18.40;99.90
19941;DHT22;10132;50.864;5.176;2023-07-31T10:28:35;18.10;99.90
19941;DHT22;10132;50.864;5.176;2023-07-31T10:30:38;18.20;99.90
19941;DHT22;10132;50.864;5.176;2023-07-31T10:32:43;18.30;99.90
19941;DHT22;10132;50.864;5.176;2023-07-31T10:34:46;18.40;99.90
19941;DHT22;10132;50.864;5.176;2023-07-31T10:36:49;18.60;99.90
19941;DHT22;10132;50.864;5.176;2023-07-31T10:38:51;18.50;99.90
19941;DHT22;10132;50.864;5.176;2023-07-31T10:41:08;18.60;99.90
19941;DHT22;10132;50.864;5.176;2023-07-31T10:43:24;18.70;99.90
19941;DHT22;10132;50.864;5.176;2023-07-31T10:45:33;18.70;99.90
19941;DHT22;10132;50.864;5.176;2023-07-31T10:47:37;18.60;99.90
19941;DHT22;10132;50.864;5.176;2023-07-31T10:49:40;18.70;99.90
19941;DHT22;10132;50.864;5.176;2023-07-31T10:51:42;18.70;99.90
19941;DHT22;10132;50.864;5.176;2023-07-31T10:53:44;18.40;99.90
19941;DHT22;10132;50.864;5.176;2023-07-31T10:55:46;18.60;99.90
19941;DHT22;10132;50.864;5.176;2023-07-31T10:57:48;18.70;99.90
19941;DHT22;10132;50.864;5.176;2023-07-31T11:00:18;18.80;99.90
19941;DHT22;10132;50.864;5.176;2023-07-31T11:02:26;18.80;99.90
19941;DHT22;10132;50.864;5.176;2023-07-31T11:04:31;19.00;99.90
19941;DHT22;10132;50.864;5.176;2023-07-31T11:06:36;19.10;99.90
19941;DHT22;10132;50.864;5.176;2023-07-31T11:08:42;18.90;99.90
19941;DHT22;10132;50.864;5.176;2023-07-31T11:10:46;19.00;99.90
19941;DHT22;10132;50.864;5.176;2023-07-31T11:12:47;19.10;99.90
19941;DHT22;10132;50.864;5.176;2023-07-31T11:14:56;19.10;99.90
19941;DHT22;10132;50.864;5.176;2023-07-31T11:16:58;19.30;99.90
19941;DHT22;10132;50.864;5.176;2023-07-31T11:19:00;19.30;99.90
19941;DHT22;10132;50.864;5.176;2023-07-31T11:21:02;19.40;99.90
19941;DHT22;10132;50.864;5.176;2023-07-31T11:23:07;19.40;99.90
19941;DHT22;10132;50.864;5.176;2023-07-31T11:25:10;19.40;99.90
19941;DHT22;10132;50.864;5.176;2023-07-31T11:27:12;19.40;99.90
19941;DHT22;10132;50.864;5.176;2023-07-31T11:29:14;19.40;99.90
19941;DHT22;10132;50.864;5.176;2023-07-31T11:31:18;19.20;99.90
19941;DHT22;10132;50.864;5.176;2023-07-31T11:33:20;19.20;99.90
19941;DHT22;10132;50.864;5.176;2023-07-31T11:35:22;19.30;99.90
19941;DHT22;10132;50.864;5.176;2023-07-31T11:37:25;19.20;99.90
19941;DHT22;10132;50.864;5.176;2023-07-31T11:39:40;19.30;99.90
19941;DHT22;10132;50.864;5.176;2023-07-31T11:41:42;19.40;99.90
19941;DHT22;10132;50.864;5.176;2023-07-31T11:43:45;19.60;99.90
19941;DHT22;10132;50.864;5.176;2023-07-31T11:45:48;19.70;99.90
19941;DHT22;10132;50.864;5.176;2023-07-31T11:47:52;19.70;99.90
19941;DHT22;10132;50.864;5.176;2023-07-31T11:49:55;19.90;99.90
19941;DHT22;10132;50.864;5.176;2023-07-31T11:51:57;20.10;99.90
19941;DHT22;10132;50.864;5.176;2023-07-31T11:54:00;20.30;99.90
19941;DHT22;10132;50.864;5.176;2023-07-31T11:56:04;20.50;99.90
19941;DHT22;10132;50.864;5.176;2023-07-31T11:58:07;20.50;99.90
19941;DHT22;10132;50.864;5.176;2023-07-31T12:00:11;20.50;99.90
19941;DHT22;10132;50.864;5.176;2023-07-31T12:02:14;20.40;99.90
19941;DHT22;10132;50.864;5.176;2023-07-31T12:04:18;20.50;99.90
19941;DHT22;10132;50.864;5.176;2023-07-31T12:06:21;20.60;99.90
19941;DHT22;10132;50.864;5.176;2023-07-31T12:08:24;20.50;99.90
19941;DHT22;10132;50.864;5.176;2023-07-31T12:10:27;20.20;99.90
19941;DHT22;10132;50.864;5.176;2023-07-31T12:12:29;20.00;99.90
19941;DHT22;10132;50.864;5.176;2023-07-31T12:14:31;20.00;99.90
19941;DHT22;10132;50.864;5.176;2023-07-31T12:16:33;19.90;99.90
19941;DHT22;10132;50.864;5.176;2023-07-31T12:18:36;19.90;99.90
19941;DHT22;10132;50.864;5.176;2023-07-31T12:20:44;19.90;99.90
19941;DHT22;10132;50.864;5.176;2023-07-31T12:22:46;19.90;99.90
19941;DHT22;10132;50.864;5.176;2023-07-31T12:24:47;20.00;99.90
19941;DHT22;10132;50.864;5.176;2023-07-31T12:26:49;20.20;99.90
19941;DHT22;10132;50.864;5.176;2023-07-31T12:28:54;20.30;99.90
19941;DHT22;10132;50.864;5.176;2023-07-31T12:30:57;20.40;99.90
19941;DHT22;10132;50.864;5.176;2023-07-31T12:33:03;20.30;99.90
19941;DHT22;10132;50.864;5.176;2023-07-31T12:35:08;20.40;99.90
19941;DHT22;10132;50.864;5.176;2023-07-31T12:37:12;20.50;99.90
19941;DHT22;10132;50.864;5.176;2023-07-31T12:39:15;20.30;99.90
19941;DHT22;10132;50.864;5.176;2023-07-31T12:41:17;20.40;99.90
19941;DHT22;10132;50.864;5.176;2023-07-31T12:43:19;20.30;99.90
19941;DHT22;10132;50.864;5.176;2023-07-31T12:45:20;20.40;99.90
19941;DHT22;10132;50.864;5.176;2023-07-31T12:47:23;20.50;99.90
19941;DHT22;10132;50.864;5.176;2023-07-31T12:49:25;20.60;99.90
19941;DHT22;10132;50.864;5.176;2023-07-31T12:51:27;20.50;99.90
19941;DHT22;10132;50.864;5.176;2023-07-31T12:53:31;20.40;99.90
19941;DHT22;10132;50.864;5.176;2023-07-31T12:55:33;20.30;99.90
19941;DHT22;10132;50.864;5.176;2023-07-31T12:57:37;20.40;99.90